M I D A S
Marine Information and Data Acquisition System
Tripno 1267 of the Zeeleeuw from 2007-05-04 07:37:53 to 2007-05-04 14:16:29
Back to CruiseResearch ActivitiesStationsMapUnderway DataData graphs

EquipmentUnitsComment
TimeDGPSUTC
LatitudeDGPSDM.mWGS84
LongitudeDGPSDM.mWGS84
HeadingGyrodeg 
SOGDGPSknotsSpeed over ground
COGDGPSdegCourse over ground
DepthEcho soundermeters200 kHz
Missing or incorrect values are displayed as -999
Navigation data collected by the RV Zeeleeuw from 2007-05-04 06:54:01 to 2007-05-04 14:28:36
Time Latitude Longitude Heading SOG COG Depth
2007-05-04 06:55:06 51°13.581 2°56.133 127.7 -999 256 -999
2007-05-04 06:56:06 51°13.58 2°56.133 123.8 -999 197 -999
2007-05-04 06:57:06 51°13.582 2°56.125 118.3 1.4 292 -999
2007-05-04 06:58:06 51°13.599 2°56.068 118.5 2.9 295 -999
2007-05-04 06:59:06 51°13.619 2°55.998 127.1 2.4 298 -999
2007-05-04 07:00:07 51°13.634 2°55.956 130.1 2.7 304 -999
2007-05-04 07:01:06 51°13.647 2°55.923 114.2 0.3 122 -999
2007-05-04 07:02:06 51°13.641 2°55.953 100.8 1.7 104 -999
2007-05-04 07:03:07 51°13.635 2°56.002 102.3 1.7 100 -999
2007-05-04 07:04:07 51°13.632 2°56.025 114.8 0.2 32 -999
2007-05-04 07:05:06 51°13.632 2°56.025 118.9 -999 50 -999
2007-05-04 07:06:06 51°13.633 2°56.025 130.4 0.1 229 -999
2007-05-04 07:07:06 51°13.633 2°56.024 132 0.1 235 -999
2007-05-04 07:08:06 51°13.634 2°56.024 130.5 -999 267 -999
2007-05-04 07:09:06 51°13.634 2°56.025 130.5 -999 235 -999
2007-05-04 07:10:06 51°13.633 2°56.025 130.5 -999 122 -999
2007-05-04 07:11:06 51°13.634 2°56.025 130.5 -999 167 7.5
2007-05-04 07:12:06 51°13.633 2°56.024 130.5 -999 239 7.5
2007-05-04 07:13:06 51°13.633 2°56.024 130.5 -999 228 7.5
2007-05-04 07:14:06 51°13.633 2°56.024 130.5 -999 31 7.5
2007-05-04 07:15:06 51°13.633 2°56.024 130.5 -999 356 5.6
2007-05-04 07:16:06 51°13.633 2°56.024 130.5 -999 81 7.4
2007-05-04 07:17:06 51°13.633 2°56.024 130.4 -999 231 7.4
2007-05-04 07:18:06 51°13.633 2°56.024 130.2 -999 40 7.4
2007-05-04 07:19:06 51°13.634 2°56.025 130 -999 221 7.4
2007-05-04 07:20:06 51°13.633 2°56.025 129.9 -999 221 7.4
2007-05-04 07:21:06 51°13.634 2°56.026 129.8 -999 21 7.4
2007-05-04 07:22:06 51°13.635 2°56.025 129.7 -999 130 7.4
2007-05-04 07:23:06 51°13.635 2°56.025 129.7 -999 189 7.4
2007-05-04 07:24:06 51°13.635 2°56.025 129.6 -999 324 -999
2007-05-04 07:25:06 51°13.636 2°56.025 129.7 -999 193 7.4
2007-05-04 07:26:06 51°13.635 2°56.026 129.7 -999 137 7.6
2007-05-04 07:27:06 51°13.635 2°56.026 129.7 -999 38 7.5
2007-05-04 07:28:06 51°13.635 2°56.026 129.7 -999 186 7.5
2007-05-04 07:29:06 51°13.635 2°56.026 129.7 -999 155 5.5
2007-05-04 07:30:06 51°13.635 2°56.026 129.6 -999 23 7.4
2007-05-04 07:31:06 51°13.634 2°56.026 129.6 -999 46 7.4
2007-05-04 07:32:06 51°13.635 2°56.025 129.6 -999 230 7.4
2007-05-04 07:33:06 51°13.634 2°56.025 129.6 -999 90 7.4
2007-05-04 07:34:06 51°13.635 2°56.025 129.6 -999 178 7.4
2007-05-04 07:35:06 51°13.634 2°56.025 128.8 -999 238 -999
2007-05-04 07:36:06 51°13.634 2°56.025 129.9 -999 150 7.4
2007-05-04 07:37:06 51°13.633 2°56.025 124.1 0.1 189 5.4
2007-05-04 07:38:06 51°13.633 2°56.02 112.8 0.7 286 7.6
2007-05-04 07:39:06 51°13.644 2°55.977 115.4 2.5 293 -999
2007-05-04 07:40:06 51°13.661 2°55.902 113.7 3.3 289 -999
2007-05-04 07:41:06 51°13.683 2°55.818 123.2 3.6 299 -999
2007-05-04 07:42:06 51°13.701 2°55.77 122.3 1.6 295 10.4
2007-05-04 07:43:06 51°13.713 2°55.723 113.2 0.4 289 -999
2007-05-04 07:44:06 51°13.717 2°55.757 65.9 1.5 66 4.9
2007-05-04 07:45:06 51°13.705 2°55.738 60.5 1.5 232 -999
2007-05-04 07:46:06 51°13.713 2°55.751 30.1 1.8 32 4.9
2007-05-04 07:47:06 51°13.697 2°55.744 26.9 1.6 201 -999
2007-05-04 07:48:06 51°13.687 2°55.74 13.7 0.2 357 9.6
2007-05-04 07:49:06 51°13.708 2°55.729 342.3 2.7 337 10.6
2007-05-04 07:50:06 51°13.769 2°55.678 336.1 5.3 332 9.6
2007-05-04 07:51:06 51°13.865 2°55.609 339.8 7.6 336 9.2
2007-05-04 07:52:06 51°13.992 2°55.519 343.3 9 335 9.8
2007-05-04 07:53:06 51°14.134 2°55.421 341.1 9.7 335 10.2
2007-05-04 07:54:06 51°14.267 2°55.267 316.6 10.1 311 10.2
2007-05-04 07:55:06 51°14.367 2°55.024 305.5 11.9 299 9.2
2007-05-04 07:56:06 51°14.459 2°54.717 303.4 13.4 294 9.8
2007-05-04 07:57:06 51°14.485 2°54.361 268.5 14.1 256 9.9
2007-05-04 07:58:06 51°14.38 2°54.026 242 14.1 242 7.9
2007-05-04 07:59:06 51°14.269 2°53.688 247.3 14.4 242 8.2
2007-05-04 08:00:06 51°14.144 2°53.356 239.5 14.7 238 8.5
2007-05-04 08:01:06 51°14.007 2°53.03 239.8 14.9 236 8.7
2007-05-04 08:02:06 51°13.872 2°52.699 244.5 15.2 235 8.9
2007-05-04 08:03:06 51°13.744 2°52.361 245.9 14.7 234 9.1
2007-05-04 08:04:06 51°13.609 2°52.032 239.9 15.1 239 9.2
2007-05-04 08:05:06 51°13.479 2°51.694 241.5 14.9 239 9.4
2007-05-04 08:06:06 51°13.349 2°51.356 241.2 15.1 239 9.4
2007-05-04 08:07:06 51°13.221 2°51.01 243.5 15.1 238 9.5
2007-05-04 08:08:06 51°13.092 2°50.661 245.1 15.2 237 9.8
2007-05-04 08:09:06 51°12.965 2°50.311 244.5 15.4 239 9.8
2007-05-04 08:10:06 51°12.84 2°49.96 244.4 15.5 237 9.9
2007-05-04 08:11:06 51°12.715 2°49.607 243.5 15 245 10.1
2007-05-04 08:12:06 51°12.589 2°49.259 241.6 14.9 242 10.3
2007-05-04 08:13:06 51°12.461 2°48.919 242.4 15 239 10.1
2007-05-04 08:14:06 51°12.345 2°48.576 247.6 14.8 238 10.6
2007-05-04 08:15:06 51°12.234 2°48.22 248 15.2 237 10.5
2007-05-04 08:16:06 51°12.124 2°47.862 247.1 14.9 245 10.7
2007-05-04 08:17:06 51°12.016 2°47.504 251.6 15 251 10.5
2007-05-04 08:18:06 51°11.943 2°47.128 260.7 14.6 256 10.8
2007-05-04 08:19:06 51°11.882 2°46.745 261.4 15.1 257 11.5
2007-05-04 08:20:06 51°11.825 2°46.359 265.6 15 258 11.4
2007-05-04 08:21:06 51°11.789 2°45.968 268.7 14.8 261 11.7
2007-05-04 08:22:06 51°11.753 2°45.579 267.6 14.8 261 12
2007-05-04 08:23:06 51°11.715 2°45.194 266.8 14.9 260 11.7
2007-05-04 08:24:06 51°11.679 2°44.814 269 14.6 260 11.5
2007-05-04 08:25:06 51°11.642 2°44.441 266.1 14.2 258 11.4
2007-05-04 08:26:06 51°11.61 2°44.07 267.5 13.9 262 11.2
2007-05-04 08:27:06 51°11.576 2°43.697 268.4 14 260 10.9
2007-05-04 08:28:06 51°11.545 2°43.326 267 14.2 262 10
2007-05-04 08:29:06 51°11.5 2°42.957 262.8 14.1 259 9.9
2007-05-04 08:30:06 51°11.455 2°42.585 264.9 14.3 259 10.1
2007-05-04 08:31:06 51°11.404 2°42.212 265.4 14.5 258 9.9
2007-05-04 08:32:06 51°11.357 2°41.834 265.4 14.5 262 10.1
2007-05-04 08:33:06 51°11.305 2°41.505 255.2 9.4 242 11.2
2007-05-04 08:34:06 51°11.21 2°41.436 168.3 5.1 174 11.3
2007-05-04 08:35:06 51°11.163 2°41.513 95.6 4.5 101 11.1
2007-05-04 08:36:06 51°11.124 2°41.656 111.4 6.9 125 11
2007-05-04 08:37:06 51°11.099 2°41.823 89.2 6.4 97 10.9
2007-05-04 08:38:06 51°11.088 2°41.957 82.4 3.9 86 11.7
2007-05-04 08:39:06 51°11.085 2°42.021 68.3 1.4 90 11.5
2007-05-04 08:40:06 51°11.098 2°42.054 52.1 0.9 79 11.4
2007-05-04 08:41:06 51°11.086 2°42.054 65.6 1.2 202 12.1
2007-05-04 08:42:06 51°11.065 2°42.036 77.6 1.9 204 11.4
2007-05-04 08:43:06 51°11.041 2°42.002 97 2.3 223 11.8
2007-05-04 08:44:06 51°11.019 2°41.963 115.7 1.9 231 11.6
2007-05-04 08:45:06 51°10.999 2°41.925 125.5 1.9 229 11.7
2007-05-04 08:46:06 51°10.978 2°41.889 126.2 1.8 225 12
2007-05-04 08:47:06 51°10.952 2°41.883 103.5 1.8 147 11.3
2007-05-04 08:48:06 51°10.96 2°41.927 42.4 2.6 28 12.1
2007-05-04 08:49:06 51°11.018 2°41.972 41.1 4.4 36 11.6
2007-05-04 08:50:06 51°11.084 2°42.039 35.6 3.8 29 11.5
2007-05-04 08:51:06 51°11.106 2°42.065 49.4 0.2 115 11.3
2007-05-04 08:52:06 51°11.096 2°42.059 56.9 1 208 11.5
2007-05-04 08:53:06 51°11.091 2°42.06 45.8 1.4 22 11.6
2007-05-04 08:54:06 51°11.128 2°41.99 310.6 6.6 284 11.3
2007-05-04 08:55:06 51°11.107 2°41.708 266.3 13.4 256 11.1
2007-05-04 08:56:06 51°11.03 2°41.347 254.7 14.6 249 11.5
2007-05-04 08:57:06 51°10.949 2°40.977 257.6 14.9 252 11.8
2007-05-04 08:58:06 51°10.881 2°40.6 260 14.7 254 12.5
2007-05-04 08:59:06 51°10.814 2°40.225 260.1 14.5 256 12.7
2007-05-04 09:00:06 51°10.753 2°39.843 263.2 15 256 13.4
2007-05-04 09:01:06 51°10.71 2°39.458 268.4 14.8 258 14.1
2007-05-04 09:02:06 51°10.657 2°39.074 262.6 15 259 16
2007-05-04 09:03:06 51°10.596 2°38.689 262.5 15.4 253 16.9
2007-05-04 09:04:06 51°10.539 2°38.303 262.1 14.9 256 17.1
2007-05-04 09:05:06 51°10.481 2°37.924 264 14.8 252 17
2007-05-04 09:06:06 51°10.426 2°37.556 264.5 14.1 253 16.8
2007-05-04 09:07:06 51°10.373 2°37.187 262.1 14.4 259 16.5
2007-05-04 09:08:06 51°10.327 2°36.818 269.4 14.1 268 14.9
2007-05-04 09:09:06 51°10.404 2°36.501 316.4 11.9 308 8.8
2007-05-04 09:10:06 51°10.579 2°36.398 8.3 11.5 7 9.3
2007-05-04 09:11:06 51°10.768 2°36.469 21.8 11.7 13 10.5
2007-05-04 09:12:06 51°10.959 2°36.53 18.1 11.7 11 11.5
2007-05-04 09:13:06 51°11.148 2°36.581 19.4 11.5 12 11.1
2007-05-04 09:14:06 51°11.33 2°36.651 22.5 11.5 15 11.5
2007-05-04 09:15:06 51°11.514 2°36.739 24.1 11.5 16 11.2
2007-05-04 09:16:06 51°11.699 2°36.828 23.9 11.7 17 10.5
2007-05-04 09:17:06 51°11.883 2°36.91 23.2 11.1 15 10
2007-05-04 09:18:06 51°12.063 2°36.993 23.9 11.3 16 9.7
2007-05-04 09:19:06 51°12.243 2°37.071 22.7 11.1 15 9.7
2007-05-04 09:20:06 51°12.426 2°37.149 21.7 11.5 15 10.1
2007-05-04 09:21:06 51°12.611 2°37.228 22.6 11.6 14 10.3
2007-05-04 09:22:06 51°12.798 2°37.305 22.5 11.8 14 10.5
2007-05-04 09:23:06 51°12.984 2°37.385 22.4 11.6 15 9.7
2007-05-04 09:24:06 51°13.174 2°37.45 15 11.8 6 9.9
2007-05-04 09:25:06 51°13.37 2°37.47 11.5 11.9 2 8.7
2007-05-04 09:26:06 51°13.567 2°37.447 357.4 12.2 346 8.7
2007-05-04 09:27:06 51°13.77 2°37.357 353.4 12.5 344 17.2
2007-05-04 09:28:06 51°13.963 2°37.225 345.7 12.7 335 19.5
2007-05-04 09:29:06 51°14.15 2°37.084 347.1 12.5 335 14.6
2007-05-04 09:30:06 51°14.338 2°36.953 348.2 12.4 337 10.6
2007-05-04 09:31:06 51°14.527 2°36.835 352.3 12 340 10.4
2007-05-04 09:32:06 51°14.716 2°36.732 352.8 11.9 342 8.7
2007-05-04 09:33:06 51°14.914 2°36.631 352.3 12.5 343 13.7
2007-05-04 09:34:06 51°15.103 2°36.53 352.8 11.8 340 13.6
2007-05-04 09:35:06 51°15.29 2°36.428 351.3 11.7 341 15.1
2007-05-04 09:36:06 51°15.482 2°36.333 351.8 12.1 340 16.8
2007-05-04 09:37:06 51°15.676 2°36.296 10.9 12 2 21.4
2007-05-04 09:38:06 51°15.869 2°36.308 11.3 11.7 1 25.6
2007-05-04 09:39:06 51°16.053 2°36.356 26 10.7 17 26.2
2007-05-04 09:40:06 51°16.221 2°36.47 34.8 11 27 26.5
2007-05-04 09:41:06 51°16.377 2°36.594 34 8.8 29 27
2007-05-04 09:42:06 51°16.479 2°36.677 35.3 6.1 24 26.3
2007-05-04 09:43:06 51°16.533 2°36.74 44.7 2.1 27 26.1
2007-05-04 09:44:06 51°16.56 2°36.74 33.9 1.5 17 26.3
2007-05-04 09:45:06 51°16.579 2°36.77 37.5 1.8 16 26
2007-05-04 09:46:06 51°16.602 2°36.776 52.5 0.3 173 25.7
2007-05-04 09:47:06 51°16.579 2°36.77 78.1 2 195 26.1
2007-05-04 09:48:06 51°16.547 2°36.745 93.6 2.2 211 26.3
2007-05-04 09:49:06 51°16.513 2°36.711 104.5 2.5 217 26.7
2007-05-04 09:50:06 51°16.481 2°36.673 113.1 2.5 218 26.6
2007-05-04 09:51:06 51°16.448 2°36.634 115.1 2.6 213 26.5
2007-05-04 09:52:06 51°16.418 2°36.643 80.5 1.7 102 26.3
2007-05-04 09:53:06 51°16.455 2°36.692 37.1 5.6 33 27
2007-05-04 09:54:06 51°16.572 2°36.816 39.3 10.4 32 26.3
2007-05-04 09:55:06 51°16.711 2°36.962 39 10.3 32 26
2007-05-04 09:56:06 51°16.859 2°37.12 38.5 11.1 31 27.5
2007-05-04 09:57:06 51°17.01 2°37.281 38.4 10.6 33 28.1
2007-05-04 09:58:06 51°17.157 2°37.44 37 10.6 31 26.4
2007-05-04 09:59:06 51°17.309 2°37.584 35 11.2 30 26.9
2007-05-04 10:00:06 51°17.463 2°37.733 36 10.5 32 27.1
2007-05-04 10:01:06 51°17.616 2°37.878 36.2 11 30 26.8
2007-05-04 10:02:06 51°17.771 2°38.028 36.6 10.9 32 27.1
2007-05-04 10:03:06 51°17.927 2°38.182 36.2 11 33 26.5
2007-05-04 10:04:06 51°18.081 2°38.336 36.2 10.8 33 27
2007-05-04 10:05:06 51°18.235 2°38.493 36.6 11.2 32 27.3
2007-05-04 10:06:06 51°18.39 2°38.646 36.5 10.9 31 26.9
2007-05-04 10:07:06 51°18.545 2°38.801 36.5 10.8 33 26.7
2007-05-04 10:08:06 51°18.699 2°38.953 36.2 10.7 31 26.5
2007-05-04 10:09:06 51°18.847 2°39.102 37 10.3 33 26.1
2007-05-04 10:10:06 51°19.001 2°39.254 35.9 10.8 32 26.3
2007-05-04 10:11:06 51°19.156 2°39.406 36.1 11.1 32 27.1
2007-05-04 10:12:06 51°19.316 2°39.558 36 11.2 31 27.7
2007-05-04 10:13:06 51°19.457 2°39.705 36.3 11.1 30 28.9
2007-05-04 10:14:06 51°19.611 2°39.858 36.2 11.1 30 29.2
2007-05-04 10:15:06 51°19.778 2°39.978 22.9 11.3 13 29.3
2007-05-04 10:16:06 51°19.962 2°40.037 18.4 10 13 -999
2007-05-04 10:17:06 51°20.129 2°40.096 19.7 10.6 13 28.5
2007-05-04 10:18:06 51°20.308 2°40.159 20.6 10.6 13 28.6
2007-05-04 10:19:06 51°20.486 2°40.199 11.4 11.2 2 27.6
2007-05-04 10:20:06 51°20.669 2°40.213 9.3 9.4 1 -999
2007-05-04 10:21:06 51°20.849 2°40.225 10.6 11.3 1 26.6
2007-05-04 10:22:06 51°21.034 2°40.239 10.5 11.1 4 24.1
2007-05-04 10:23:06 51°21.214 2°40.251 10.9 10.7 3 26.7
2007-05-04 10:24:06 51°21.397 2°40.278 18.8 11.3 12 27.6
2007-05-04 10:25:06 51°21.566 2°40.33 11.1 9.6 354 27.3
2007-05-04 10:26:06 51°21.711 2°40.158 328.9 11.9 321 27.2
2007-05-04 10:27:06 51°21.856 2°39.954 330.3 11.5 321 27.2
2007-05-04 10:28:06 51°22.005 2°39.759 334.8 11.7 325 28.8
2007-05-04 10:29:06 51°22.179 2°39.654 2.7 11 357 29.4
2007-05-04 10:30:06 51°22.362 2°39.725 25.1 11.3 19 29.1
2007-05-04 10:31:06 51°22.533 2°39.819 24.8 11 19 29.8
2007-05-04 10:32:06 51°22.706 2°39.913 23.9 11 17 30.5
2007-05-04 10:33:06 51°22.882 2°40 23.3 10.9 18 29.7
2007-05-04 10:34:06 51°23.034 2°40.149 44.9 10.4 45 30.1
2007-05-04 10:35:06 51°23.158 2°40.367 54.7 11.2 57 30.1
2007-05-04 10:36:06 51°23.256 2°40.612 58.3 10.6 57 29.4
2007-05-04 10:37:06 51°23.356 2°40.857 56.5 11.1 56 29
2007-05-04 10:38:07 51°23.451 2°41.107 61.7 10.3 61 28.6
2007-05-04 10:39:06 51°23.542 2°41.353 60.6 11.4 59 30.8
2007-05-04 10:40:06 51°23.639 2°41.605 61 11.4 58 29.8
2007-05-04 10:41:06 51°23.739 2°41.862 58.7 11.4 56 27.6
2007-05-04 10:42:06 51°23.836 2°42.116 59.4 10.9 60 27.2
2007-05-04 10:43:06 51°23.932 2°42.363 59.8 11 59 27.4
2007-05-04 10:44:06 51°24.029 2°42.612 59.1 11 61 26.9
2007-05-04 10:45:06 51°24.127 2°42.855 58.9 11.1 59 26.7
2007-05-04 10:46:06 51°24.209 2°43.113 64 11.1 66 20.2
2007-05-04 10:47:06 51°24.291 2°43.375 64.9 11.4 63 24.1
2007-05-04 10:48:06 51°24.375 2°43.645 64 11.2 67 25.9
2007-05-04 10:49:06 51°24.46 2°43.91 65.9 11 64 23.3
2007-05-04 10:50:06 51°24.545 2°44.177 63.4 11.1 64 22.9
2007-05-04 10:51:06 51°24.626 2°44.44 64.4 11.3 65 27.3
2007-05-04 10:52:06 51°24.708 2°44.709 65.3 11.1 64 25.8
2007-05-04 10:53:06 51°24.789 2°44.98 64 11.3 65 27.2
2007-05-04 10:54:06 51°24.873 2°45.253 63.5 11.7 67 25.8
2007-05-04 10:55:06 51°24.95 2°45.522 64.7 11.2 65 24.8
2007-05-04 10:56:06 51°25.031 2°45.792 64.6 11.4 64 25.6
2007-05-04 10:57:06 51°25.114 2°46.062 64.3 11.4 61 25.9
2007-05-04 10:58:06 51°25.198 2°46.343 63.3 11.7 65 25.9
2007-05-04 10:59:06 51°25.276 2°46.613 64.2 11.7 65 25.6
2007-05-04 11:00:06 51°25.36 2°46.887 63.4 11.4 64 25.7
2007-05-04 11:01:06 51°25.443 2°47.163 63.9 11.6 63 25.9
2007-05-04 11:02:06 51°25.527 2°47.437 64.4 11.8 61 25.3
2007-05-04 11:03:06 51°25.607 2°47.716 63.4 11.6 69 26.1
2007-05-04 11:04:06 51°25.69 2°47.984 63.7 9.8 61 24.3
2007-05-04 11:05:06 51°25.784 2°48.16 47.6 8.1 43 23.9
2007-05-04 11:06:06 51°25.872 2°48.275 44.8 6.3 46 24.3
2007-05-04 11:07:06 51°25.935 2°48.381 44 5.5 47 24.5
2007-05-04 11:08:06 51°25.976 2°48.463 45.2 2.5 56 24.6
2007-05-04 11:09:06 51°25.994 2°48.484 24.5 0.5 60 24.4
2007-05-04 11:10:06 51°25.982 2°48.489 52.1 1.5 189 24.2
2007-05-04 11:11:06 51°25.953 2°48.473 82.8 2 212 24.6
2007-05-04 11:12:06 51°25.916 2°48.501 116 6.2 120 24.7
2007-05-04 11:13:06 51°25.854 2°48.766 105 12.2 104 24.4
2007-05-04 11:14:07 51°25.801 2°49.098 102.9 12.7 105 24.5
2007-05-04 11:15:06 51°25.748 2°49.424 101.4 12.9 108 23.8
2007-05-04 11:16:06 51°25.692 2°49.753 102.8 12.7 108 24
2007-05-04 11:17:06 51°25.636 2°50.086 106.3 13 104 24.6
2007-05-04 11:18:06 51°25.579 2°50.414 104.9 12.5 100 24.5
2007-05-04 11:19:06 51°25.521 2°50.743 104.1 12.9 105 24.3
2007-05-04 11:20:06 51°25.466 2°51.072 104 12.8 108 23.8
2007-05-04 11:21:06 51°25.407 2°51.404 104.8 13 103 24.1
2007-05-04 11:22:06 51°25.347 2°51.735 104.5 13 108 23.3
2007-05-04 11:23:06 51°25.284 2°52.063 104.3 13.1 108 26.3
2007-05-04 11:24:06 51°25.226 2°52.393 102.3 12.9 106 25.5
2007-05-04 11:25:06 51°25.176 2°52.728 100.1 12.9 101 24.1
2007-05-04 11:26:06 51°25.145 2°53.065 96.9 12.8 96 23.2
2007-05-04 11:27:06 51°25.115 2°53.405 97.2 13.1 98 22.5
2007-05-04 11:28:06 51°25.084 2°53.748 96.6 13 98 20.9
2007-05-04 11:29:06 51°25.051 2°54.087 96.8 12.8 99 21.8
2007-05-04 11:30:07 51°25.019 2°54.434 96.3 13.1 101 21
2007-05-04 11:31:06 51°24.985 2°54.77 98.3 12.7 101 19.4
2007-05-04 11:32:06 51°24.951 2°55.111 97.1 12.8 100 19.7
2007-05-04 11:33:06 51°24.922 2°55.453 96.4 12.9 97 22.2
2007-05-04 11:34:06 51°24.894 2°55.799 96.5 13.2 97 24.9
2007-05-04 11:35:06 51°24.865 2°56.144 100.4 13 96 24.5
2007-05-04 11:36:06 51°24.836 2°56.488 95.8 13.3 99 25.4
2007-05-04 11:37:06 51°24.802 2°56.83 99 12.9 100 23.8
2007-05-04 11:38:06 51°24.78 2°57.172 93.6 13.1 96 21.7
2007-05-04 11:39:06 51°24.759 2°57.515 92.9 13.2 99 21.8
2007-05-04 11:40:06 51°24.74 2°57.863 95.4 13.4 97 20.5
2007-05-04 11:41:06 51°24.718 2°58.213 93.8 13.2 95 20.3
2007-05-04 11:42:06 51°24.696 2°58.562 93.6 13.2 97 19.5
2007-05-04 11:43:06 51°24.672 2°58.909 92.8 12.9 93 19
2007-05-04 11:44:06 51°24.663 2°59.255 90.3 12.9 89 18.7
2007-05-04 11:45:06 51°24.654 2°59.602 91.2 13.1 90 18.9
2007-05-04 11:46:07 51°24.649 2°59.96 90 13.5 91 19.2
2007-05-04 11:47:06 51°24.641 3°0.311 95.1 13.6 92 19.4
2007-05-04 11:48:06 51°24.623 3°0.669 91.7 13.4 94 20
2007-05-04 11:49:06 51°24.611 3°1.026 93.9 13.4 92 20.4
2007-05-04 11:50:06 51°24.597 3°1.385 92.1 13.5 97 20
2007-05-04 11:51:06 51°24.583 3°1.744 92.1 13.4 92 20.1
2007-05-04 11:52:06 51°24.564 3°2.106 96.8 13.5 97 19.4
2007-05-04 11:53:07 51°24.538 3°2.474 95.4 13.9 99 20.5
2007-05-04 11:54:06 51°24.502 3°2.828 100.7 14.2 103 20.7
2007-05-04 11:55:06 51°24.463 3°3.191 101.2 13.4 99 20.1
2007-05-04 11:56:06 51°24.406 3°3.548 109.1 13.9 104 20.2
2007-05-04 11:57:06 51°24.332 3°3.904 108.4 14.3 110 20.7
2007-05-04 11:58:06 51°24.25 3°4.26 112.6 14.2 116 20.4
2007-05-04 11:59:06 51°24.134 3°4.585 119 13.9 110 20.3
2007-05-04 12:00:07 51°24.05 3°4.943 109.2 14 112 20
2007-05-04 12:01:06 51°23.977 3°5.3 109.4 14.3 105 20.1
2007-05-04 12:02:06 51°23.903 3°5.66 109.9 14 106 19.4
2007-05-04 12:03:06 51°23.826 3°6.021 110.3 14.4 105 18.3
2007-05-04 12:04:06 51°23.75 3°6.381 107 14.2 114 16.5
2007-05-04 12:05:06 51°23.679 3°6.744 108.1 14.2 106 16.5
2007-05-04 12:06:06 51°23.606 3°7.107 108.4 14.4 112 16
2007-05-04 12:07:06 51°23.533 3°7.472 108.5 14.4 110 15
2007-05-04 12:08:06 51°23.462 3°7.841 109.3 14.4 107 14.4
2007-05-04 12:09:07 51°23.395 3°8.216 109.5 14.4 103 14.8
2007-05-04 12:10:06 51°23.325 3°8.576 110.3 14.6 108 14.5
2007-05-04 12:11:07 51°23.256 3°8.949 107.5 14.6 112 16.1
2007-05-04 12:12:06 51°23.188 3°9.306 109.7 14.3 104 20.1
2007-05-04 12:13:07 51°23.119 3°9.675 110.2 14.5 101 16.3
2007-05-04 12:14:06 51°23.052 3°10.036 110.3 14.4 104 15.4
2007-05-04 12:15:06 51°22.985 3°10.408 109.7 14.5 104 15
2007-05-04 12:16:07 51°22.916 3°10.785 109.6 15 108 15.1
2007-05-04 12:17:06 51°22.848 3°11.151 108.2 14.8 107 14.7
2007-05-04 12:18:07 51°22.785 3°11.53 108.7 14.3 100 15.4
2007-05-04 12:19:06 51°22.718 3°11.868 111.6 12.7 109 15.5
2007-05-04 12:20:07 51°22.651 3°12.194 111.8 12.6 109 15.3
2007-05-04 12:21:06 51°22.585 3°12.511 112.8 12.7 108 15
2007-05-04 12:22:07 51°22.517 3°12.823 111.7 11.2 109 14.7
2007-05-04 12:23:06 51°22.51 3°13.057 84.9 7.3 83 14.4
2007-05-04 12:24:06 51°22.526 3°13.221 65.6 5.2 74 14.4
2007-05-04 12:25:07 51°22.531 3°13.319 66.3 2.4 103 13.4
2007-05-04 12:26:06 51°22.515 3°13.376 93 2.4 119 13.8
2007-05-04 12:27:07 51°22.499 3°13.428 117.8 2.1 126 13.9
2007-05-04 12:28:06 51°22.482 3°13.476 122.6 2 121 14
2007-05-04 12:29:07 51°22.466 3°13.526 120.2 2.1 120 13.5
2007-05-04 12:30:06 51°22.449 3°13.574 116.6 2.1 123 13.5
2007-05-04 12:31:07 51°22.431 3°13.625 117.5 2.3 120 13.4
2007-05-04 12:32:06 51°22.415 3°13.676 116.1 2.3 117 13.4
2007-05-04 12:33:07 51°22.397 3°13.73 116.8 2.4 113 12.9
2007-05-04 12:34:06 51°22.38 3°13.786 113.9 2.5 115 13.3
2007-05-04 12:35:06 51°22.361 3°13.845 107.7 2.5 112 13.1
2007-05-04 12:36:07 51°22.341 3°13.907 106.9 2.7 117 12.7
2007-05-04 12:37:06 51°22.323 3°13.969 107.2 2.6 112 12.8
2007-05-04 12:38:07 51°22.305 3°14.031 109.8 2.5 118 12.7
2007-05-04 12:39:06 51°22.285 3°14.092 113 2.6 116 12.6
2007-05-04 12:40:06 51°22.264 3°14.167 100.1 4.4 109 12.6
2007-05-04 12:41:06 51°22.273 3°14.295 44.9 4.9 66 12.3
2007-05-04 12:42:07 51°22.321 3°14.367 357.1 3.8 23 12.3
2007-05-04 12:43:07 51°22.345 3°14.344 283 2.3 267 12.3
2007-05-04 12:44:06 51°22.359 3°14.269 294 3.5 296 12.9
2007-05-04 12:45:07 51°22.389 3°14.182 297.8 3.7 298 12.9
2007-05-04 12:46:06 51°22.413 3°14.091 290.3 4.2 306 12.6
2007-05-04 12:47:06 51°22.471 3°14.036 298.8 2.7 291 12.6
2007-05-04 12:48:06 51°22.451 3°13.955 269.7 3.5 261 12.9
2007-05-04 12:49:07 51°22.452 3°13.855 280.4 3.8 276 12.9
2007-05-04 12:50:06 51°22.456 3°13.751 281.5 4.1 274 13.7
2007-05-04 12:51:06 51°22.472 3°13.659 291.4 2.9 286 14
2007-05-04 12:52:07 51°22.485 3°13.595 290.6 2.3 291 13.7
2007-05-04 12:53:06 51°22.5 3°13.536 288.3 3.7 281 13.4
2007-05-04 12:54:07 51°22.523 3°13.406 285.7 4.6 283 14.3
2007-05-04 12:55:06 51°22.537 3°13.302 287.6 3.7 285 14.3
2007-05-04 12:56:06 51°22.534 3°13.205 270 3.7 260 15.2
2007-05-04 12:57:06 51°22.518 3°13.108 268.2 3.8 257 14.9
2007-05-04 12:58:06 51°22.499 3°12.959 267.1 9 260 15.4
2007-05-04 12:59:06 51°22.472 3°12.69 266.5 10.4 263 16.2
2007-05-04 13:00:06 51°22.449 3°12.413 266.6 10.6 264 16.9
2007-05-04 13:01:06 51°22.428 3°12.135 269.4 10.5 261 17.5
2007-05-04 13:02:06 51°22.383 3°11.867 257.2 10.8 237 18.2
2007-05-04 13:03:06 51°22.307 3°11.609 252.6 10.9 245 18.3
2007-05-04 13:04:06 51°22.235 3°11.355 252.3 10.6 244 19
2007-05-04 13:05:06 51°22.171 3°11.1 253.6 10.4 250 19.6
2007-05-04 13:06:06 51°22.108 3°10.837 253 10.5 253 21.6
2007-05-04 13:07:06 51°22.055 3°10.567 255 10.6 259 18.2
2007-05-04 13:08:06 51°21.996 3°10.297 253.4 11.1 249 17.3
2007-05-04 13:09:06 51°21.938 3°10.026 252.2 10.7 254 16
2007-05-04 13:10:06 51°21.885 3°9.756 255.2 10.8 245 15.3
2007-05-04 13:11:06 51°21.823 3°9.487 253 10.8 249 14.8
2007-05-04 13:12:06 51°21.761 3°9.217 250.6 10.8 252 13.9
2007-05-04 13:13:06 51°21.696 3°8.945 252.5 11 253 13.4
2007-05-04 13:14:06 51°21.632 3°8.672 253.3 10.8 244 13
2007-05-04 13:15:06 51°21.57 3°8.397 253.9 11.5 246 12.4
2007-05-04 13:16:06 51°21.511 3°8.118 253.1 11 248 12.6
2007-05-04 13:17:06 51°21.445 3°7.84 253 11.2 245 12.2
2007-05-04 13:18:06 51°21.38 3°7.566 250.4 10.7 239 12.1
2007-05-04 13:19:06 51°21.306 3°7.297 250 10.9 247 12
2007-05-04 13:20:06 51°21.214 3°7.04 239.2 11.3 229 11.6
2007-05-04 13:21:06 51°21.084 3°6.825 226.6 11.1 219 11.3
2007-05-04 13:22:06 51°20.946 3°6.621 224.3 11.1 223 10.5
2007-05-04 13:23:06 51°20.792 3°6.448 217.2 10.7 206 10.5
2007-05-04 13:24:06 51°20.619 3°6.315 215.2 11.4 209 9.9
2007-05-04 13:25:06 51°20.447 3°6.179 212.6 11.9 208 10.5
2007-05-04 13:26:06 51°20.278 3°6.038 214.8 12.2 205 10.5
2007-05-04 13:27:06 51°20.111 3°5.884 217.3 11.7 202 10.8
2007-05-04 13:28:06 51°19.954 3°5.713 220.6 11.5 217 10.8
2007-05-04 13:29:06 51°19.829 3°5.487 242.2 11.7 225 10.2
2007-05-04 13:30:06 51°19.722 3°5.238 234.1 11.6 237 10.7
2007-05-04 13:31:06 51°19.609 3°5.001 235.9 11.6 237 10.8
2007-05-04 13:32:06 51°19.494 3°4.751 235 12.5 237 10.9
2007-05-04 13:33:06 51°19.386 3°4.503 235.9 11.3 240 10.9
2007-05-04 13:34:06 51°19.274 3°4.26 239 11.2 224 10.8
2007-05-04 13:35:06 51°19.161 3°4.014 234.4 11.5 243 10.8
2007-05-04 13:36:06 51°19.048 3°3.774 236.7 11.5 228 10.8
2007-05-04 13:37:06 51°18.936 3°3.534 238 11.7 230 10.8
2007-05-04 13:38:06 51°18.827 3°3.293 239.3 11.6 232 11.1
2007-05-04 13:39:06 51°18.725 3°3.045 241.2 11.1 234 11.2
2007-05-04 13:40:06 51°18.621 3°2.801 241.5 11.2 235 11.5
2007-05-04 13:41:06 51°18.518 3°2.55 236.9 11.6 242 11.3
2007-05-04 13:42:06 51°18.414 3°2.301 239.5 11.6 235 11.2
2007-05-04 13:43:06 51°18.308 3°2.052 239.2 11.8 234 11.5
2007-05-04 13:44:06 51°18.211 3°1.796 245.3 11.6 230 11.7
2007-05-04 13:45:06 51°18.118 3°1.543 240.2 11.3 248 11.8
2007-05-04 13:46:06 51°18.021 3°1.288 242.4 11 237 11.8
2007-05-04 13:47:06 51°17.919 3°1.043 241.7 11.4 230 11.6
2007-05-04 13:48:06 51°17.822 3°0.792 239.1 11.2 233 11.9
2007-05-04 13:49:06 51°17.721 3°0.543 244.5 11.1 236 12
2007-05-04 13:50:06 51°17.62 3°0.29 241 11.2 231 12.1
2007-05-04 13:51:06 51°17.517 3°0.039 242 11.2 234 12.3
2007-05-04 13:52:06 51°17.416 2°59.783 240 11.9 234 12
2007-05-04 13:53:06 51°17.317 2°59.522 239.7 11.8 248 12.1
2007-05-04 13:54:06 51°17.217 2°59.26 245.3 11.4 236 12.1
2007-05-04 13:55:06 51°17.116 2°58.994 244.5 12.1 236 12.3
2007-05-04 13:56:06 51°17.021 2°58.724 241.9 11.7 239 12.1
2007-05-04 13:57:06 51°16.923 2°58.455 242.3 11.7 237 12.2
2007-05-04 13:58:06 51°16.827 2°58.18 243.1 11.9 241 12.2
2007-05-04 13:59:06 51°16.731 2°57.901 243.8 12.2 239 12.1
2007-05-04 14:00:06 51°16.629 2°57.634 238.4 11.8 236 12.3
2007-05-04 14:01:06 51°16.523 2°57.366 241.8 12.3 233 12.3
2007-05-04 14:02:06 51°16.416 2°57.102 237 11.9 240 12.4
2007-05-04 14:03:06 51°16.301 2°56.853 238.3 12 235 12.2
2007-05-04 14:04:06 51°16.188 2°56.594 236.7 12 235 12
2007-05-04 14:05:06 51°16.071 2°56.344 235.5 11.6 233 12.1
2007-05-04 14:06:06 51°15.948 2°56.105 234.9 11.7 224 11.7
2007-05-04 14:07:06 51°15.822 2°55.87 233.8 10.8 220 11.6
2007-05-04 14:08:06 51°15.69 2°55.642 228.4 11.3 219 11.6
2007-05-04 14:09:06 51°15.535 2°55.452 220.8 11.8 216 11.2
2007-05-04 14:10:06 51°15.386 2°55.27 222 11.2 227 10.9
2007-05-04 14:11:06 51°15.232 2°55.092 217.4 11.8 218 10.7
2007-05-04 14:12:06 51°15.078 2°54.929 222.8 11.2 205 11.6
2007-05-04 14:13:06 51°14.904 2°54.813 210.9 11.4 192 12
2007-05-04 14:14:06 51°14.714 2°54.722 204.5 11.5 190 12.3
2007-05-04 14:15:06 51°14.528 2°54.827 157.1 12.3 134 12.6
2007-05-04 14:16:06 51°14.371 2°55.058 142 13 136 13.8
2007-05-04 14:17:06 51°14.233 2°55.304 137.8 11.9 129 14.3
2007-05-04 14:18:06 51°14.078 2°55.455 159.8 9.8 156 14.2
2007-05-04 14:19:06 51°13.943 2°55.547 159.7 7.4 156 13.5
2007-05-04 14:20:06 51°13.85 2°55.617 159.6 5.5 155 13.2
2007-05-04 14:21:06 51°13.776 2°55.68 152 4.9 148 13.5
2007-05-04 14:22:06 51°13.72 2°55.76 131.2 4.4 129 14.3
2007-05-04 14:23:06 51°13.675 2°55.855 132.8 4.6 127 12.2
2007-05-04 14:24:06 51°13.633 2°55.951 124.8 3.9 119 12.5
2007-05-04 14:25:06 51°13.615 2°56.042 103.8 3.8 101 12.7
2007-05-04 14:26:06 51°13.604 2°56.091 118.9 0.7 120 8.9
2007-05-04 14:27:06 51°13.6 2°56.099 123.5 0.3 95 10.6
2007-05-04 14:28:06 51°13.601 2°56.102 119.6 0.3 25 9.5